Wisconsin Dells, Wisconsin
Current Conditions -  °F | °C
As of 10:10 AM on Wednesday 28 Jan 2015 (Local Time) from KDLL Reporting Station
Haze Haze  
Wind Chill: 14°   Ceiling: 800
Heat Index: 25°   Visibility: 4mi
Dew Point: 23°   Wind: 14mph
Humidity: 90%   Direction: 170°S
Pressure: 30.13"   Gusts: 23mph
Location:  43.63°N, 89.77°W
Report Text: KDLL 281610Z AUTO 17012G20KT 4SM BR OVC008 M04/M05 A3013 RMK AO2 T10371051
Loading
Personal Weather Stations






























Interactive Weather Map New forecast layout! Learn more

10-Day Weather Forecast

Advertisements
Track Severe Weather on mobile